createdAt,value
2023-05-12T00:01:02.912Z,5.00
2023-05-12T00:03:29.434Z,4.90
2023-05-12T00:05:55.964Z,4.40
2023-05-12T00:08:22.387Z,4.60
2023-05-12T00:10:48.875Z,4.50
2023-05-12T00:13:15.574Z,5.03
2023-05-12T00:15:42.163Z,4.10
2023-05-12T00:18:08.618Z,4.20
2023-05-12T00:20:35.142Z,4.43
2023-05-12T00:23:01.612Z,3.97
2023-05-12T00:25:28.102Z,4.50
2023-05-12T00:27:54.551Z,4.57
2023-05-12T00:30:21.333Z,4.10
2023-05-12T00:32:47.992Z,4.03
2023-05-12T00:35:16.023Z,4.33
2023-05-12T00:37:42.947Z,3.97
2023-05-12T00:40:09.847Z,3.60
2023-05-12T00:42:36.643Z,4.07
2023-05-12T00:45:04.653Z,3.87
2023-05-12T00:47:31.307Z,4.27
2023-05-12T00:49:58.537Z,4.00
2023-05-12T00:52:25.085Z,3.83
2023-05-12T00:54:51.651Z,3.73
2023-05-12T00:57:19.064Z,3.90
2023-05-12T00:59:45.846Z,4.00
2023-05-12T01:02:12.463Z,3.20
2023-05-12T01:04:39.617Z,3.67
2023-05-12T01:07:14.568Z,3.67
2023-05-12T01:09:41.057Z,3.77
2023-05-12T01:12:07.628Z,3.70
2023-05-12T01:14:34.254Z,3.60
2023-05-12T01:17:05.112Z,3.60
2023-05-12T01:19:52.479Z,3.33
2023-05-12T01:22:19.307Z,3.27
2023-05-12T01:24:57.157Z,3.33
2023-05-12T01:27:25.932Z,3.13
2023-05-12T01:29:53.180Z,3.60
2023-05-12T01:32:20.955Z,3.17
2023-05-12T01:34:47.568Z,3.20
2023-05-12T01:37:13.991Z,3.33
2023-05-12T01:39:40.503Z,3.53
2023-05-12T01:42:07.254Z,3.50
2023-05-12T01:44:34.150Z,4.00
2023-05-12T01:47:01.614Z,4.03
2023-05-12T01:49:28.429Z,3.87
2023-05-12T01:51:54.866Z,2.87
2023-05-12T01:54:21.345Z,3.50
2023-05-12T01:56:47.751Z,3.17
2023-05-12T01:59:14.195Z,3.30
2023-05-12T02:01:40.677Z,3.20
2023-05-12T02:04:09.005Z,2.90
2023-05-12T02:06:35.660Z,3.17
2023-05-12T02:09:02.166Z,3.27
2023-05-12T02:11:28.818Z,2.87
2023-05-12T02:13:55.460Z,3.20
2023-05-12T02:16:22.008Z,2.23
2023-05-12T02:18:48.554Z,2.90
2023-05-12T02:21:15.268Z,3.40
2023-05-12T02:23:41.738Z,2.57
2023-05-12T02:26:08.318Z,2.97
2023-05-12T02:28:35.027Z,2.90
2023-05-12T02:31:01.509Z,3.30
2023-05-12T02:33:27.987Z,3.03
2023-05-12T02:35:54.594Z,3.00
2023-05-12T02:38:21.079Z,2.30
2023-05-12T02:40:47.912Z,2.23
2023-05-12T02:43:14.527Z,2.33
2023-05-12T02:45:41.538Z,2.77
2023-05-12T02:48:08.152Z,2.80
2023-05-12T02:50:34.619Z,3.40
2023-05-12T02:53:01.102Z,3.00
2023-05-12T02:55:29.918Z,2.93
2023-05-12T02:57:56.686Z,3.10
2023-05-12T03:00:23.103Z,3.50
2023-05-12T03:02:49.578Z,3.17
2023-05-12T03:05:16.068Z,3.00
2023-05-12T03:07:42.521Z,3.20
2023-05-12T03:10:12.545Z,4.00
2023-05-12T03:12:39.033Z,3.73
2023-05-12T03:15:05.827Z,4.87
2023-05-12T03:17:32.478Z,4.67
2023-05-12T03:19:58.989Z,4.90
2023-05-12T03:22:25.685Z,4.27
2023-05-12T03:24:52.289Z,4.37
2023-05-12T03:27:18.827Z,5.17
2023-05-12T03:29:45.954Z,4.87
2023-05-12T03:32:12.786Z,5.17
2023-05-12T03:34:39.210Z,5.40
2023-05-12T03:37:05.713Z,5.10
2023-05-12T03:39:32.131Z,5.90
2023-05-12T03:41:58.572Z,5.63
2023-05-12T03:44:25.024Z,5.80
2023-05-12T03:46:51.602Z,6.03
2023-05-12T03:49:18.080Z,6.43
2023-05-12T03:51:44.488Z,6.37
2023-05-12T03:54:10.949Z,6.47
2023-05-12T03:56:37.406Z,5.67
2023-05-12T03:59:04.173Z,6.83
2023-05-12T04:01:30.598Z,7.23
2023-05-12T04:03:57.294Z,6.40
2023-05-12T04:06:23.832Z,6.80
2023-05-12T04:08:50.266Z,6.20
2023-05-12T04:11:16.715Z,5.97
2023-05-12T04:13:43.130Z,7.17
2023-05-12T04:16:09.985Z,6.13
2023-05-12T04:18:36.814Z,7.40
2023-05-12T04:21:03.743Z,8.03
2023-05-12T04:23:30.300Z,7.63
2023-05-12T04:25:56.868Z,7.73
2023-05-12T04:28:23.353Z,8.23
2023-05-12T04:30:49.891Z,7.83
2023-05-12T04:33:16.378Z,8.17
2023-05-12T04:35:42.935Z,8.10
2023-05-12T04:38:09.515Z,9.30
2023-05-12T04:40:36.275Z,8.97
2023-05-12T04:43:02.723Z,9.43
2023-05-12T04:45:29.153Z,9.30
2023-05-12T04:47:56.313Z,9.50
2023-05-12T04:50:22.781Z,8.63
2023-05-12T04:52:49.241Z,9.40
2023-05-12T04:55:15.752Z,8.53
2023-05-12T04:57:42.224Z,10.00
2023-05-12T05:00:09.345Z,8.50
2023-05-12T05:02:36.157Z,9.67
2023-05-12T05:05:02.772Z,9.87
2023-05-12T05:07:29.316Z,10.23
2023-05-12T05:09:55.715Z,9.07
2023-05-12T05:12:22.249Z,10.23
2023-05-12T05:14:49.013Z,9.63
2023-05-12T05:17:15.660Z,10.47
2023-05-12T05:19:54.798Z,10.67
2023-05-12T05:22:24.650Z,11.87
2023-05-12T05:24:51.963Z,10.83
2023-05-12T05:27:18.676Z,10.43
2023-05-12T05:29:45.190Z,12.13
2023-05-12T05:32:11.694Z,12.00
2023-05-12T05:34:38.309Z,12.90
2023-05-12T05:37:05.004Z,11.23
2023-05-12T05:39:31.590Z,10.90
2023-05-12T05:41:58.245Z,11.43
2023-05-12T05:44:25.211Z,11.43
2023-05-12T05:46:51.862Z,11.60
2023-05-12T05:49:18.769Z,12.67
2023-05-12T05:51:45.216Z,12.87
2023-05-12T05:54:12.289Z,13.17
2023-05-12T05:56:38.966Z,11.80
2023-05-12T05:59:05.816Z,12.57
2023-05-12T06:01:32.962Z,12.23
2023-05-12T06:03:59.793Z,13.10
2023-05-12T06:06:26.584Z,12.43
2023-05-12T06:08:55.901Z,12.60
2023-05-12T06:11:22.430Z,13.33
2023-05-12T06:13:48.828Z,12.57
2023-05-12T06:16:15.439Z,12.03
2023-05-12T06:18:41.993Z,13.23
2023-05-12T06:21:08.547Z,12.63
2023-05-12T06:23:35.299Z,13.17
2023-05-12T06:26:01.760Z,12.17
2023-05-12T06:28:28.240Z,13.07
2023-05-12T06:30:55.532Z,13.20
2023-05-12T06:33:21.993Z,13.63
2023-05-12T06:35:48.487Z,13.60
2023-05-12T06:38:14.938Z,12.13
2023-05-12T06:40:41.444Z,12.60
2023-05-12T06:43:08.017Z,12.50
2023-05-12T06:45:34.456Z,13.10
2023-05-12T06:48:02.084Z,12.67
2023-05-12T06:50:28.661Z,13.50
2023-05-12T06:52:55.370Z,12.57
2023-05-12T06:55:22.695Z,12.33
2023-05-12T06:57:51.761Z,12.07
2023-05-12T07:00:18.558Z,12.27
2023-05-12T07:02:45.122Z,12.27
2023-05-12T07:05:12.132Z,12.73
2023-05-12T07:07:38.742Z,12.73
2023-05-12T07:10:06.490Z,13.40
2023-05-12T07:12:33.125Z,13.30
2023-05-12T07:14:59.652Z,12.63
2023-05-12T07:17:26.333Z,13.13
2023-05-12T07:19:52.935Z,12.57
2023-05-12T07:22:22.492Z,12.07
2023-05-12T07:24:49.650Z,12.57
2023-05-12T07:27:16.416Z,13.03
2023-05-12T07:29:42.866Z,11.33
2023-05-12T07:32:09.335Z,11.23
2023-05-12T07:34:35.777Z,11.00
2023-05-12T07:37:03.946Z,11.33
2023-05-12T07:39:32.365Z,10.03
2023-05-12T07:41:59.352Z,10.17
2023-05-12T07:44:27.292Z,10.67
2023-05-12T07:46:54.462Z,9.33
2023-05-12T07:49:22.209Z,10.30
2023-05-12T07:51:48.917Z,10.80
2023-05-12T07:54:15.488Z,10.27
2023-05-12T07:56:41.912Z,9.93
2023-05-12T07:59:08.766Z,9.30
2023-05-12T08:01:35.218Z,9.20
2023-05-12T08:04:01.779Z,8.23
2023-05-12T08:06:28.333Z,8.10
2023-05-12T08:08:57.966Z,7.10
2023-05-12T08:11:26.097Z,7.40
2023-05-12T08:13:53.174Z,7.07
2023-05-12T08:16:19.800Z,7.30
2023-05-12T08:18:46.379Z,6.10
2023-05-12T08:21:13.102Z,5.70
2023-05-12T08:23:39.537Z,5.60
2023-05-12T08:26:06.388Z,5.33
2023-05-12T08:28:32.975Z,5.13
2023-05-12T08:31:01.492Z,5.73
2023-05-12T08:33:29.282Z,5.17
2023-05-12T08:35:55.797Z,5.60
2023-05-12T08:38:22.383Z,5.27
2023-05-12T08:41:14.740Z,4.93
2023-05-12T08:43:49.528Z,4.70
2023-05-12T08:46:16.805Z,5.17
2023-05-12T08:48:46.493Z,4.63
2023-05-12T08:51:13.950Z,4.50
2023-05-12T08:53:42.543Z,3.90
2023-05-12T08:58:42.825Z,5.17
2023-05-12T09:01:11.911Z,3.67
2023-05-12T09:03:39.072Z,4.10
2023-05-12T09:06:06.458Z,4.00
2023-05-12T09:08:34.841Z,4.53
2023-05-12T09:11:02.057Z,3.93
2023-05-12T09:13:54.626Z,3.50
2023-05-12T09:16:25.715Z,4.20
2023-05-12T09:18:58.131Z,4.30
2023-05-12T09:21:26.381Z,4.03
2023-05-12T09:24:00.046Z,4.00
2023-05-12T09:26:28.203Z,3.80
2023-05-12T09:29:06.582Z,3.43
2023-05-12T09:31:33.140Z,3.97
2023-05-12T09:34:02.182Z,3.93
2023-05-12T09:36:28.850Z,3.80
2023-05-12T09:39:05.367Z,3.87
2023-05-12T09:41:35.612Z,3.90
2023-05-12T09:44:02.706Z,3.90
2023-05-12T09:46:29.629Z,3.33
2023-05-12T09:48:57.500Z,3.47
2023-05-12T09:51:25.639Z,3.20
2023-05-12T09:53:52.346Z,3.50
2023-05-12T09:56:20.386Z,2.90
2023-05-12T09:58:48.656Z,2.97
2023-05-12T10:01:23.247Z,2.70
2023-05-12T10:03:57.324Z,2.93
2023-05-12T10:06:30.232Z,3.30
2023-05-12T10:09:03.449Z,2.83
2023-05-12T10:11:30.188Z,3.50
2023-05-12T10:13:57.793Z,2.77
2023-05-12T10:16:24.751Z,2.97
2023-05-12T10:18:52.446Z,2.73
2023-05-12T10:21:19.513Z,2.77
2023-05-12T10:23:47.677Z,2.53
2023-05-12T10:26:14.688Z,2.70
2023-05-12T10:28:42.963Z,2.43
2023-05-12T10:31:10.587Z,2.70
2023-05-12T10:33:37.490Z,2.73
2023-05-12T10:36:04.694Z,2.60
2023-05-12T10:38:37.384Z,3.00
2023-05-12T10:41:06.482Z,2.80
2023-05-12T10:43:45.073Z,2.33
2023-05-12T10:46:22.482Z,2.63
2023-05-12T10:49:04.282Z,2.70
2023-05-12T10:51:46.291Z,2.60
2023-05-12T10:54:19.927Z,1.97
2023-05-12T10:56:47.164Z,2.37
2023-05-12T10:59:20.768Z,2.33
2023-05-12T11:02:01.297Z,2.73
2023-05-12T11:04:56.536Z,2.80
2023-05-12T11:07:27.893Z,2.50
2023-05-12T11:09:58.514Z,2.33
2023-05-12T11:12:27.928Z,2.50
2023-05-12T11:14:54.681Z,2.43
2023-05-12T11:17:21.144Z,2.30
2023-05-12T11:19:50.193Z,2.27
2023-05-12T11:22:19.251Z,2.40
2023-05-12T11:24:46.395Z,2.57
2023-05-12T11:27:15.030Z,2.23
2023-05-12T11:29:42.789Z,2.00
2023-05-12T11:32:11.308Z,2.67
2023-05-12T11:34:38.753Z,2.57
2023-05-12T11:37:08.528Z,2.47
2023-05-12T11:39:36.267Z,1.73
2023-05-12T11:42:12.137Z,2.33
2023-05-12T11:44:47.820Z,2.33
2023-05-12T11:47:15.523Z,2.00
2023-05-12T11:49:46.229Z,2.00
2023-05-12T11:52:12.677Z,1.70
2023-05-12T11:54:39.273Z,2.37
2023-05-12T11:57:06.008Z,2.20
2023-05-12T11:59:35.136Z,2.10
2023-05-12T12:02:03.790Z,2.07
2023-05-12T12:04:40.666Z,2.30
2023-05-12T12:07:08.622Z,2.53
2023-05-12T12:09:37.652Z,2.40
2023-05-12T12:12:05.757Z,1.93
2023-05-12T12:14:33.223Z,2.37
2023-05-12T12:17:00.348Z,2.40
2023-05-12T12:19:27.917Z,2.50
2023-05-12T12:21:55.523Z,2.73
2023-05-12T12:24:22.488Z,2.47
2023-05-12T12:26:48.928Z,2.40
2023-05-12T12:29:15.407Z,1.83
2023-05-12T12:31:41.867Z,2.20
2023-05-12T12:34:08.492Z,2.10
2023-05-12T12:36:35.705Z,2.20
2023-05-12T12:39:03.206Z,2.40
2023-05-12T12:41:29.697Z,2.43
2023-05-12T12:43:56.295Z,2.00
2023-05-12T12:46:22.801Z,2.20
2023-05-12T12:48:49.320Z,2.30
2023-05-12T12:51:15.847Z,2.47
2023-05-12T12:53:45.724Z,2.57
2023-05-12T12:56:12.200Z,2.23
2023-05-12T12:58:38.617Z,2.37
2023-05-12T13:01:05.231Z,2.50
2023-05-12T13:03:31.756Z,2.50
2023-05-12T13:05:58.388Z,2.13
2023-05-12T13:08:24.842Z,2.30
2023-05-12T13:10:51.757Z,2.30
2023-05-12T13:13:18.153Z,2.40
2023-05-12T13:15:44.633Z,1.93
2023-05-12T13:18:11.167Z,2.13
2023-05-12T13:20:37.668Z,2.13
2023-05-12T13:23:04.216Z,2.47
2023-05-12T13:25:32.203Z,2.70
2023-05-12T13:27:58.602Z,2.53
2023-05-12T13:30:25.357Z,2.27
2023-05-12T13:32:51.878Z,2.13
2023-05-12T13:35:18.583Z,2.10
2023-05-12T13:37:45.161Z,1.73
2023-05-12T13:40:12.133Z,2.03
2023-05-12T13:42:38.578Z,2.70
2023-05-12T13:45:06.016Z,2.00
2023-05-12T13:47:32.631Z,2.37
2023-05-12T13:49:59.194Z,2.40
2023-05-12T13:52:25.672Z,2.20
2023-05-12T13:54:52.138Z,2.03
2023-05-12T13:57:18.552Z,2.17
2023-05-12T13:59:44.997Z,2.50
2023-05-12T14:02:13.691Z,2.40
2023-05-12T14:04:40.303Z,2.40
2023-05-12T14:07:08.554Z,2.30
2023-05-12T14:09:35.487Z,2.40
2023-05-12T14:12:02.523Z,2.23
2023-05-12T14:14:28.922Z,2.20
2023-05-12T14:16:55.710Z,2.17
2023-05-12T14:19:22.167Z,2.30
2023-05-12T14:21:49.081Z,2.60
2023-05-12T14:24:15.691Z,2.93
2023-05-12T14:26:42.122Z,3.30
2023-05-12T14:29:08.924Z,3.20
2023-05-12T14:31:35.564Z,3.80
2023-05-12T14:34:03.943Z,3.63
2023-05-12T14:36:30.853Z,2.70
2023-05-12T14:38:57.334Z,2.63
2023-05-12T14:41:24.368Z,3.10
2023-05-12T14:43:50.849Z,3.10
2023-05-12T14:46:17.469Z,3.17
2023-05-12T14:48:44.304Z,3.50
2023-05-12T14:51:10.926Z,3.23
2023-05-12T14:53:37.544Z,3.40
2023-05-12T14:56:04.169Z,3.13
2023-05-12T14:58:30.910Z,3.10
2023-05-12T15:00:57.398Z,2.90
2023-05-12T15:03:24.841Z,3.43
2023-05-12T15:08:21.590Z,2.87
2023-05-12T15:10:48.577Z,3.00
2023-05-12T15:13:17.732Z,3.10
2023-05-12T15:15:44.210Z,2.63
2023-05-12T15:18:10.736Z,3.27
2023-05-12T15:20:38.051Z,3.83
2023-05-12T15:23:04.643Z,3.13
2023-05-12T15:25:31.399Z,3.77
2023-05-12T15:27:57.936Z,3.00
2023-05-12T15:30:24.384Z,3.00
2023-05-12T15:32:50.896Z,3.20
2023-05-12T15:35:17.448Z,3.07
2023-05-12T15:37:43.873Z,3.10
2023-05-12T15:40:10.735Z,3.10
2023-05-12T15:42:37.230Z,3.60
2023-05-12T15:45:04.053Z,2.50
2023-05-12T15:47:30.704Z,3.37
2023-05-12T15:49:57.161Z,3.17
2023-05-12T15:52:24.345Z,3.00
2023-05-12T15:54:51.237Z,3.03
2023-05-12T15:57:18.157Z,3.33
2023-05-12T15:59:44.581Z,3.40
2023-05-12T16:02:11.173Z,3.00
2023-05-12T16:04:37.668Z,3.10
2023-05-12T16:07:04.335Z,3.00
2023-05-12T16:09:31.159Z,3.17
2023-05-12T16:11:57.806Z,2.80
2023-05-12T16:14:25.527Z,3.30
2023-05-12T16:16:52.074Z,3.30
2023-05-12T16:19:18.547Z,3.10
2023-05-12T16:21:45.060Z,3.30
2023-05-12T16:24:11.776Z,2.83
2023-05-12T16:26:38.542Z,3.13
2023-05-12T16:29:04.991Z,3.00
2023-05-12T16:31:31.719Z,2.80
2023-05-12T16:33:58.491Z,2.93
2023-05-12T16:36:24.964Z,4.43
2023-05-12T16:38:51.859Z,3.37
2023-05-12T16:41:18.811Z,3.00
2023-05-12T16:43:45.469Z,3.10
2023-05-12T16:46:12.023Z,3.00
2023-05-12T16:48:38.506Z,3.20
2023-05-12T16:51:09.162Z,2.87
2023-05-12T16:53:36.449Z,2.90
2023-05-12T16:56:03.154Z,3.13
2023-05-12T16:58:33.490Z,3.00
2023-05-12T17:01:00.830Z,2.90
2023-05-12T17:03:28.482Z,3.23
2023-05-12T17:05:55.353Z,4.20
2023-05-12T17:08:22.053Z,3.40
2023-05-12T17:10:48.573Z,4.50
2023-05-12T17:13:16.709Z,3.70
2023-05-12T17:15:43.256Z,4.40
2023-05-12T17:18:09.773Z,4.17
2023-05-12T17:20:36.453Z,4.37
2023-05-12T17:23:02.903Z,4.20
2023-05-12T17:25:31.116Z,4.03
2023-05-12T17:27:57.874Z,4.57
2023-05-12T17:30:24.666Z,4.40
2023-05-12T17:32:51.711Z,4.67
2023-05-12T17:35:18.346Z,4.00
2023-05-12T17:37:44.827Z,4.60
2023-05-12T17:40:16.419Z,4.10
2023-05-12T17:42:43.055Z,4.77
2023-05-12T17:45:09.868Z,4.60
2023-05-12T17:47:36.435Z,5.23
2023-05-12T17:50:03.144Z,4.57
2023-05-12T17:52:29.693Z,4.43
2023-05-12T17:54:57.091Z,4.73
2023-05-12T17:57:23.947Z,4.47
2023-05-12T17:59:50.758Z,5.03
2023-05-12T18:02:17.310Z,4.43
2023-05-12T18:04:43.832Z,4.50
2023-05-12T18:07:10.317Z,3.67
2023-05-12T18:09:36.939Z,4.20
2023-05-12T18:12:03.595Z,4.27
2023-05-12T18:14:30.573Z,4.33
2023-05-12T18:16:57.364Z,4.10
2023-05-12T18:19:24.072Z,4.37
2023-05-12T18:21:52.104Z,5.10
2023-05-12T18:24:18.735Z,4.63
2023-05-12T18:26:45.836Z,4.90
2023-05-12T18:29:12.257Z,4.87
2023-05-12T18:31:38.729Z,4.37
2023-05-12T18:34:05.322Z,4.43
2023-05-12T18:36:32.289Z,4.53
2023-05-12T18:38:58.872Z,4.77
2023-05-12T18:41:25.331Z,4.67
2023-05-12T18:43:52.279Z,4.77
2023-05-12T18:46:18.731Z,5.47
2023-05-12T18:48:45.239Z,4.83
2023-05-12T18:51:11.706Z,4.17
2023-05-12T18:53:38.191Z,4.13
2023-05-12T18:56:04.743Z,4.50
2023-05-12T18:58:31.162Z,4.00
2023-05-12T19:00:57.628Z,4.50
2023-05-12T19:03:24.073Z,4.23
2023-05-12T19:05:50.645Z,4.27
2023-05-12T19:08:18.992Z,5.33
2023-05-12T19:10:45.471Z,4.80
2023-05-12T19:13:11.931Z,5.03
2023-05-12T19:15:38.364Z,4.50
2023-05-12T19:18:04.870Z,3.87
2023-05-12T19:20:31.443Z,3.67
2023-05-12T19:22:59.673Z,3.50
2023-05-12T19:25:26.191Z,3.97
2023-05-12T19:27:52.687Z,3.97
2023-05-12T19:30:19.265Z,3.70
2023-05-12T19:32:46.365Z,3.77
2023-05-12T19:35:16.026Z,3.60
2023-05-12T19:37:42.773Z,3.60
2023-05-12T19:40:09.623Z,3.50
2023-05-12T19:42:37.861Z,3.17
2023-05-12T19:45:05.523Z,3.43
2023-05-12T19:47:33.381Z,3.67
2023-05-12T19:50:00.278Z,3.60
2023-05-12T19:52:29.150Z,3.37
2023-05-12T19:54:55.746Z,3.10
2023-05-12T19:57:22.699Z,3.30
2023-05-12T19:59:49.726Z,3.40
2023-05-12T20:02:19.661Z,3.43
2023-05-12T20:04:46.457Z,2.50
2023-05-12T20:07:12.981Z,3.17
2023-05-12T20:09:39.440Z,3.00
2023-05-12T20:12:08.039Z,4.03
2023-05-12T20:14:36.121Z,4.80
2023-05-12T20:17:07.460Z,4.30
2023-05-12T20:19:34.069Z,4.13
2023-05-12T20:22:00.744Z,3.77
2023-05-12T20:24:29.363Z,3.80
2023-05-12T20:26:55.922Z,3.03
2023-05-12T20:29:22.794Z,3.20
2023-05-12T20:31:50.682Z,3.10
2023-05-12T20:34:18.574Z,3.40
2023-05-12T20:36:45.577Z,3.17
2023-05-12T20:39:13.488Z,3.57
2023-05-12T20:41:41.575Z,2.90
2023-05-12T20:44:08.490Z,2.50
2023-05-12T20:46:38.045Z,3.53
2023-05-12T20:49:05.518Z,3.10
2023-05-12T20:51:32.548Z,3.70
2023-05-12T20:53:59.470Z,3.60
2023-05-12T20:56:26.967Z,3.97
2023-05-12T20:58:53.695Z,3.53
2023-05-12T21:01:20.373Z,4.10
2023-05-12T21:03:46.962Z,4.33
2023-05-12T21:06:13.478Z,4.77
2023-05-12T21:08:39.950Z,4.63
2023-05-12T21:11:19.004Z,3.97
2023-05-12T21:13:47.134Z,3.80
2023-05-12T21:16:14.669Z,4.67
2023-05-12T21:18:41.540Z,4.43
2023-05-12T21:21:08.125Z,5.03
2023-05-12T21:23:36.299Z,4.93
2023-05-12T21:26:03.471Z,5.00
2023-05-12T21:28:30.007Z,5.80
2023-05-12T21:30:56.673Z,6.00
2023-05-12T21:33:23.126Z,5.23
2023-05-12T21:35:52.473Z,6.27
2023-05-12T21:38:20.634Z,6.73
2023-05-12T21:40:52.456Z,6.07
2023-05-12T21:43:18.920Z,6.17
2023-05-12T21:45:45.390Z,5.77
2023-05-12T21:48:12.636Z,6.10
2023-05-12T21:50:39.196Z,6.40
2023-05-12T21:53:05.643Z,6.03
2023-05-12T21:55:32.634Z,6.27
2023-05-12T21:57:59.118Z,6.10
2023-05-12T22:00:26.204Z,5.67
2023-05-12T22:02:52.831Z,6.17
2023-05-12T22:05:19.534Z,6.03
2023-05-12T22:07:46.549Z,5.60
2023-05-12T22:10:13.190Z,5.70
2023-05-12T22:12:40.261Z,6.00
2023-05-12T22:15:07.655Z,5.80
2023-05-12T22:17:34.230Z,5.90
2023-05-12T22:20:00.649Z,5.87
2023-05-12T22:22:27.163Z,6.20
2023-05-12T22:24:53.906Z,5.53
2023-05-12T22:27:22.441Z,6.00
2023-05-12T22:29:49.685Z,5.67
2023-05-12T22:32:16.298Z,5.47
2023-05-12T22:34:42.772Z,5.97
2023-05-12T22:37:09.869Z,6.00
2023-05-12T22:39:36.288Z,5.40
2023-05-12T22:42:03.260Z,5.60
2023-05-12T22:44:29.927Z,5.23
2023-05-12T22:46:56.448Z,4.87
2023-05-12T22:49:22.986Z,5.20
2023-05-12T22:51:49.460Z,5.67
2023-05-12T22:54:15.953Z,5.70
2023-05-12T22:56:42.469Z,5.67
2023-05-12T22:59:08.908Z,6.07
2023-05-12T23:01:35.463Z,5.80
2023-05-12T23:04:02.036Z,5.53
2023-05-12T23:06:28.452Z,6.17
2023-05-12T23:08:55.970Z,4.73
2023-05-12T23:11:22.554Z,5.93
2023-05-12T23:13:49.036Z,5.27
2023-05-12T23:16:15.569Z,5.67
2023-05-12T23:18:42.091Z,5.50
2023-05-12T23:21:08.567Z,4.43
2023-05-12T23:23:35.009Z,5.33
2023-05-12T23:26:01.464Z,5.27
2023-05-12T23:28:27.968Z,4.77
2023-05-12T23:30:54.633Z,5.13
2023-05-12T23:33:21.220Z,4.77
2023-05-12T23:35:47.680Z,5.50
2023-05-12T23:38:14.254Z,4.97
2023-05-12T23:40:40.732Z,5.10
2023-05-12T23:43:07.292Z,4.83
2023-05-12T23:45:34.225Z,4.70
2023-05-12T23:48:00.890Z,4.77
2023-05-12T23:50:27.435Z,5.03
2023-05-12T23:52:53.969Z,4.77
2023-05-12T23:55:21.628Z,5.07
2023-05-12T23:57:48.558Z,5.83
